PAMB

Details ICAO PAMB (KMO)
Name MANOKOTAK
Region USA (Alaska)
Timezone America/Anchorage (UTC-9.0)
Plans Departing 0
Arriving 0
Stats Elevation 51 ft / 16 m (AMSL)
Location 58.990195° -159.049924°
Runways 1
Magnetic Variation 12.538° E
Sunrise 2017-12-14 19:25:05 UTC / 2017-12-14 10:25:05 Local
Sunset 2017-12-15 01:39:53 UTC / 2017-12-14 16:39:53 Local
Advertisement - Login to hide

Runways

ID Width Length Bearing (true) Bearing (mag) Surface Threshold Offset Overrun Length
01 60 ft / 18 m 2,715 ft / 828 m 24.82° 12.28° Gravel 0 ft / 0 m 225 ft / 69 m
19 60 ft / 18 m 2,715 ft / 828 m 204.83° 192.29° Gravel 0 ft / 0 m 225 ft / 69 m

Map

Weather


0- 5 10 15 20 25 30 35+ Temperature / ° C

Clouds and Precipitation
Forecast for 2017-12-14 18:00 UTC. Updated 2 hours ago

Ground ~20,000 ft ~40,000 ft Winds

METAR

PAMB 141906Z AUTO 07004KT 1/4SM FZFG BKN002 OVC050 M01/M01 A2957 RMK AO2 FZRANO $

TAF

Not found

Frequencies

Recorded 120.62 MHz ASOS
Unicom 122.90 MHz CTAF
Warning: Do not use this data for real-world aviation or navigation. No guarantee of current accuracy is given.